< Typhoon 195407 1954 Season Typhoon 195409 >
Typhoon 195408 (IDA)
General InformationTrack Information on Google Maps || Disaster Info.ResourceGoogle EarthGE AnimationAtom FeedGeoJSON
Detalied Best Track (Time Zone = UTC)
Year Month Day Hour Lat. Long. Pressure (hPa) Wind (kt) Class Image Chart
1954 8 23 06 10.6 148.8 1006 0 2 -- Chart
1954 8 23 12 11.2 148.0 1004 0 2 -- Chart
1954 8 23 18 11.8 147.0 1004 0 2 -- Chart
1954 8 24 00 12.1 146.0 1004 0 9 -- Chart
1954 8 24 06 12.4 144.4 1000 0 9 -- Chart
1954 8 24 12 12.5 143.2 996 0 9 -- Chart
1954 8 24 18 12.7 141.6 996 0 9 -- Chart
1954 8 25 00 13.1 140.2 996 0 9 -- Chart
1954 8 25 06 14.8 139.2 970 0 9 -- Chart
1954 8 25 12 15.2 137.8 970 0 9 -- Chart
1954 8 25 18 15.9 136.2 960 0 9 -- Chart
1954 8 26 00 16.1 134.6 930 0 9 -- Chart
1954 8 26 06 16.5 133.0 895 0 9 -- Chart
1954 8 26 12 17.0 131.5 895 0 9 -- Chart
1954 8 26 18 17.6 130.0 895 0 9 -- Chart
1954 8 27 00 18.2 128.3 895 0 9 -- Chart
1954 8 27 06 18.8 126.9 890 0 9 -- Chart
1954 8 27 12 19.2 125.3 895 0 9 -- Chart
1954 8 27 18 19.5 123.6 895 0 9 -- Chart
1954 8 28 00 19.7 121.8 895 0 9 -- Chart
1954 8 28 06 20.0 120.0 910 0 9 -- Chart
1954 8 28 12 20.1 118.5 920 0 9 -- Chart
1954 8 28 18 20.4 116.9 920 0 9 -- Chart
1954 8 29 00 20.5 115.3 930 0 9 -- Chart
1954 8 29 06 20.8 114.0 940 0 9 -- Chart
1954 8 29 12 21.2 112.5 950 0 9 -- Chart
1954 8 29 18 21.4 110.9 960 0 9 -- Chart
1954 8 30 00 21.7 109.1 970 0 9 -- Chart
1954 8 30 06 21.9 107.5 980 0 9 -- Chart
1954 8 30 12 22.1 105.8 985 0 9 -- Chart
1954 8 30 18 22.3 104.0 990 0 2 -- Chart
1954 8 31 00 22.4 102.2 990 0 2 -- Chart
1954 8 31 06 22.9 100.6 992 0 2 -- Chart
1954 8 31 12 23.0 98.8 992 0 2 -- Chart
Japan Meteorological Agency Best Track Data | Correction Date : 1990-10-17
< Typhoon 195407 1954 Season Typhoon 195409 >

Help